Time;durP1;ratioP1;P1;durP2;ratioP2;P2;SDS_P1;SDS_P2;PMS_P1;PMS_P2;Temp;Humidity;BMP_temperature;BMP_pressure;BME280_temperature;BME280_humidity;BME280_pressure;Samples;Min_cycle;Max_cycle;Signal;HPM_P1;HPM_P2
2022/09/13 00:01:07;;;;;;;5.88;3.47;;;12.90;99.90;;;12.10;100.00;97517.69;5005207;28;20058;-71
2022/09/13 00:03:34;;;;;;;6.97;3.47;;;12.90;99.90;;;12.13;100.00;97518.38;5002852;28;20123;-71
2022/09/13 00:06:15;;;;;;;4.25;2.53;;;12.90;99.90;;;12.35;100.00;97506.88;5003402;28;20053;-71
2022/09/13 00:08:43;;;;;;;5.35;3.17;;;12.90;99.90;;;12.20;100.00;97492.91;5000377;28;20050;-71
2022/09/13 00:11:20;;;;;;;6.35;3.95;;;13.00;99.90;;;11.99;100.00;97497.38;5034072;28;20072;-71
2022/09/13 00:13:47;;;;;;;5.15;3.35;;;12.90;99.90;;;12.04;100.00;97500.63;5003648;28;20065;-71
2022/09/13 00:16:17;;;;;;;7.55;3.40;;;12.80;99.90;;;12.05;100.00;97493.66;5003555;28;20397;-72
2022/09/13 00:18:45;;;;;;;5.38;3.58;;;12.80;99.90;;;11.89;100.00;97503.97;5002414;28;20053;-71
2022/09/13 00:21:15;;;;;;;10.63;4.07;;;12.80;99.90;;;11.83;100.00;97499.88;5017703;28;20069;-71
2022/09/13 00:23:49;;;;;;;6.55;3.63;;;12.70;99.90;;;11.86;100.00;97504.06;5033742;28;20049;-72
2022/09/13 00:26:27;;;;;;;3.80;3.28;;;12.70;99.90;;;11.89;100.00;97501.38;5037525;28;20052;-71
2022/09/13 00:28:57;;;;;;;8.40;3.67;;;12.70;99.90;;;11.85;100.00;97513.66;5003907;28;20353;-71
2022/09/13 00:31:26;;;;;;;6.82;3.90;;;12.60;99.90;;;11.85;100.00;97512.81;5001438;28;20229;-72
2022/09/13 00:33:54;;;;;;;7.45;3.63;;;12.70;99.90;;;11.87;100.00;97511.84;5002947;28;20046;-71
2022/09/13 00:36:21;;;;;;;4.65;2.58;;;12.70;99.90;;;12.08;100.00;97519.50;5003118;28;20057;-71
2022/09/13 00:38:48;;;;;;;4.18;2.97;;;12.70;99.90;;;12.17;100.00;97516.44;5004167;28;20049;-71
2022/09/13 00:41:19;;;;;;;6.55;2.92;;;12.70;99.90;;;12.22;100.00;97516.22;4996372;28;20431;-72
2022/09/13 00:43:52;;;;;;;9.18;3.38;;;12.70;99.90;;;12.24;100.00;97524.78;4999347;28;20046;-72
2022/09/13 00:46:31;;;;;;;8.02;2.78;;;12.70;99.90;;;12.25;100.00;97529.94;4995021;28;20125;-71
2022/09/13 00:49:33;;;;;;;5.95;2.90;;;12.80;99.90;;;12.22;100.00;97522.25;4999961;28;20057;-71
2022/09/13 00:52:09;;;;;;;4.50;3.15;;;12.70;99.90;;;12.07;100.00;97528.25;5002120;28;20042;-71
2022/09/13 00:55:07;;;;;;;4.72;2.72;;;12.70;99.90;;;11.86;100.00;97520.53;4995031;28;20763;-72
2022/09/13 00:57:35;;;;;;;4.43;2.72;;;12.60;99.90;;;11.99;100.00;97525.16;5002943;28;20050;-71
2022/09/13 01:00:13;;;;;;;4.05;2.80;;;12.50;99.90;;;11.91;100.00;97530.75;5035983;28;20069;-71
2022/09/13 01:02:52;;;;;;;9.18;2.60;;;12.50;99.90;;;12.00;100.00;97532.06;5036804;28;20061;-72
2022/09/13 01:05:24;;;;;;;4.95;2.47;;;12.50;99.90;;;11.97;100.00;97530.44;5001950;28;20065;-71
2022/09/13 01:07:52;;;;;;;5.90;3.15;;;12.50;99.90;;;11.94;100.00;97528.00;5001006;28;20049;-71
2022/09/13 01:10:22;;;;;;;4.70;2.70;;;12.50;99.90;;;11.93;100.00;97506.34;5032704;28;20060;-71
2022/09/13 01:13:13;;;;;;;3.38;2.53;;;12.50;99.90;;;11.93;100.00;97501.16;5002173;28;20041;-72
2022/09/13 01:15:41;;;;;;;7.65;3.33;;;12.50;99.90;;;11.47;100.00;97502.47;5035748;28;20054;-71
2022/09/13 01:18:10;;;;;;;6.60;2.30;;;12.50;99.90;;;11.62;100.00;97509.56;5002024;28;20479;-71
2022/09/13 01:20:51;;;;;;;5.72;2.28;;;12.30;99.90;;;11.69;100.00;97497.94;5004387;28;20077;-71
2022/09/13 01:24:08;;;;;;;6.63;2.92;;;12.30;99.90;;;11.51;100.00;97498.81;5002700;28;20100;-71
2022/09/13 01:27:21;;;;;;;9.90;4.50;;;12.30;99.90;;;11.19;100.00;97514.16;5035767;28;20418;-71
2022/09/13 01:30:10;;;;;;;4.77;4.17;;;12.20;99.90;;;11.01;100.00;97528.84;5003150;28;20144;-71
2022/09/13 01:33:05;;;;;;;9.00;4.60;;;12.20;99.90;;;10.99;100.00;97535.00;5004045;28;20621;-71
2022/09/13 01:36:08;;;;;;;5.20;4.03;;;12.10;99.90;;;11.10;100.00;97546.59;5005182;28;20057;-71
2022/09/13 01:38:51;;;;;;;6.93;3.58;;;12.10;99.90;;;11.21;100.00;97550.47;5001754;28;20061;-71
2022/09/13 01:41:54;;;;;;;5.82;3.42;;;12.10;99.90;;;11.50;100.00;97557.78;5003158;28;20057;-71
2022/09/13 01:45:03;;;;;;;8.05;4.45;;;12.20;99.90;;;11.40;100.00;97553.91;5002414;28;20058;-71
2022/09/13 01:47:53;;;;;;;9.63;4.93;;;12.10;99.90;;;11.18;100.00;97545.44;5030362;28;20146;-71
2022/09/13 01:51:01;;;;;;;5.22;3.67;;;11.90;99.90;;;11.33;100.00;97560.31;4996318;28;20050;-71
2022/09/13 01:53:57;;;;;;;4.22;3.08;;;12.00;99.90;;;11.47;100.00;97557.06;4999070;28;20564;-72
2022/09/13 01:56:52;;;;;;;5.95;3.50;;;12.10;99.90;;;11.51;100.00;97550.81;5002366;28;20057;-71
2022/09/13 01:59:49;;;;;;;5.68;2.85;;;12.10;99.90;;;11.38;100.00;97565.28;5003158;28;20077;-71
2022/09/13 02:02:27;;;;;;;6.65;4.25;;;12.10;99.90;;;11.08;100.00;97568.38;5018265;28;20286;-72
2022/09/13 02:05:03;;;;;;;4.15;3.00;;;12.10;99.90;;;11.33;100.00;97582.84;4998996;28;20758;-71
2022/09/13 02:07:41;;;;;;;7.03;3.75;;;12.10;99.90;;;11.40;100.00;97579.06;5032341;28;20084;-71
2022/09/13 02:10:24;;;;;;;6.80;4.55;;;12.20;99.90;;;11.28;100.00;97572.66;5002965;28;20046;-71
2022/09/13 02:12:52;;;;;;;6.85;4.32;;;12.10;99.90;;;11.34;100.00;97569.81;5033727;28;20735;-71
2022/09/13 02:15:22;;;;;;;4.65;3.40;;;12.10;99.90;;;11.46;100.00;97564.03;5001338;28;20050;-71
2022/09/13 02:18:08;;;;;;;8.07;3.50;;;12.20;99.90;;;11.49;100.00;97563.91;5033345;28;20060;-72
2022/09/13 02:20:40;;;;;;;6.40;3.53;;;12.30;99.90;;;11.42;100.00;97566.84;5034074;28;20071;-71
2022/09/13 02:23:12;;;;;;;;;;;12.30;99.90;;;11.53;100.00;97574.97;5032145;28;20050;-71
2022/09/13 02:25:40;;;;;;;7.15;3.30;;;12.30;99.90;;;11.72;100.00;97580.16;5034651;28;20251;-71
2022/09/13 02:28:13;;;;;;;6.78;3.30;;;12.40;99.90;;;11.85;100.00;97572.63;4997120;28;20140;-71
2022/09/13 02:30:42;;;;;;;;;;;12.50;99.90;;;11.82;100.00;97576.22;5002947;28;20050;-72
2022/09/13 02:33:22;;;;;;;4.68;2.63;;;12.60;99.90;;;11.92;100.00;97577.47;4998868;28;21507;-71
2022/09/13 02:36:14;;;;;;;5.18;3.33;;;12.70;99.90;;;12.07;100.00;97572.47;5032666;28;20125;-72
2022/09/13 02:38:46;;;;;;;5.47;2.90;;;12.70;99.90;;;12.18;100.00;97565.00;4998741;28;20049;-71
2022/09/13 02:41:40;;;;;;;6.40;3.60;;;12.80;99.90;;;12.06;100.00;97544.75;5001103;28;20078;-70
2022/09/13 02:44:37;;;;;;;3.60;2.88;;;12.80;99.90;;;12.16;100.00;97538.19;5000877;28;20050;-71
2022/09/13 02:47:32;;;;;;;9.30;4.07;;;12.90;99.90;;;11.78;100.00;97538.28;4999033;28;20080;-70
2022/09/13 02:50:39;;;;;;;10.20;3.80;;;12.90;99.90;;;11.83;100.00;97551.06;5000992;28;20049;-71
2022/09/13 02:53:19;;;;;;;5.18;3.20;;;12.80;99.90;;;11.88;100.00;97533.50;4999727;28;20057;-71
2022/09/13 02:56:09;;;;;;;7.68;4.00;;;12.70;99.90;;;12.00;100.00;97542.47;5000970;28;20050;-71
2022/09/13 02:59:00;;;;;;;4.80;3.53;;;12.70;99.90;;;11.78;100.00;97542.63;4998170;28;21074;-71
2022/09/13 03:01:27;;;;;;;5.88;3.53;;;12.70;99.90;;;11.92;100.00;97550.63;5000112;28;20268;-71
2022/09/13 03:03:54;;;;;;;4.70;3.33;;;12.70;99.90;;;12.06;100.00;97543.00;5001099;28;20049;-71
2022/09/13 03:06:26;;;;;;;5.70;3.88;;;12.70;99.90;;;12.12;100.00;97544.47;5001557;28;20125;-71
2022/09/13 03:09:02;;;;;;;6.80;3.80;;;12.70;99.90;;;11.93;100.00;97541.94;4996514;28;20210;-72
2022/09/13 03:12:12;;;;;;;10.15;3.78;;;12.60;99.90;;;11.82;100.00;97532.00;5032334;28;20068;-72
2022/09/13 03:15:28;;;;;;;5.35;3.80;;;12.50;99.90;;;11.81;100.00;97535.50;5032474;28;20046;-73
2022/09/13 03:18:51;;;;;;;9.63;3.78;;;12.40;99.90;;;11.82;100.00;97537.22;5002180;28;20041;-72
2022/09/13 03:21:32;;;;;;;3.50;2.55;;;12.50;99.90;;;11.87;100.00;97531.78;5001336;28;20173;-73
2022/09/13 03:24:24;;;;;;;8.40;3.53;;;12.50;99.90;;;11.80;100.00;97522.59;5033969;28;20061;-72
2022/09/13 03:27:41;;;;;;;5.28;3.22;;;12.50;99.90;;;11.77;100.00;97518.41;5001373;28;20570;-72
2022/09/13 03:30:13;;;;;;;7.53;3.72;;;12.50;99.90;;;11.91;100.00;97515.97;4996344;28;20440;-72
2022/09/13 03:33:05;;;;;;;6.13;3.65;;;12.60;99.90;;;11.75;100.00;97524.59;4998235;28;20056;-72
2022/09/13 03:35:56;;;;;;;4.65;2.97;;;12.60;99.90;;;11.82;100.00;97520.78;5003381;28;20049;-72
2022/09/13 03:38:44;;;;;;;6.43;3.28;;;12.50;99.90;;;11.84;100.00;97513.75;5035693;28;20144;-73
2022/09/13 03:41:17;;;;;;;5.45;2.65;;;12.60;99.90;;;12.00;100.00;97504.28;5031952;28;20053;-72
2022/09/13 03:43:51;;;;;;;8.30;4.28;;;12.60;99.90;;;11.46;100.00;97496.44;4984394;28;20054;-72
2022/09/13 03:46:29;;;;;;;6.63;4.13;;;12.60;99.90;;;11.29;100.00;97507.66;5005489;28;20050;-72
2022/09/13 03:49:01;;;;;;;9.27;4.80;;;12.50;99.90;;;11.15;100.00;97510.03;5033887;28;22252;-69
2022/09/13 03:51:28;;;;;;;7.60;4.30;;;12.40;99.90;;;11.03;100.00;97498.44;5002714;28;20197;-71
2022/09/13 03:54:02;;;;;;;11.55;5.53;;;12.30;99.90;;;10.94;100.00;97496.25;5004003;28;20053;-71
2022/09/13 03:56:29;;;;;;;8.60;5.15;;;12.20;99.90;;;11.00;100.00;97497.75;5036792;28;20535;-70
2022/09/13 03:58:56;;;;;;;7.85;4.43;;;12.10;99.90;;;11.02;100.00;97501.97;5036379;28;20131;-68
2022/09/13 04:01:24;;;;;;;6.30;4.82;;;12.00;99.90;;;10.92;100.00;97507.63;4997562;28;20077;-69
2022/09/13 04:03:51;;;;;;;8.65;4.75;;;12.00;99.90;;;10.96;100.00;97506.59;5003189;28;20436;-68
2022/09/13 04:06:22;;;;;;;9.02;4.75;;;12.00;99.90;;;11.04;100.00;97515.72;5035125;28;20558;-69
2022/09/13 04:08:50;;;;;;;7.50;4.43;;;12.00;99.90;;;11.24;100.00;97519.16;4999965;28;20061;-69
2022/09/13 04:11:17;;;;;;;7.63;4.20;;;12.00;99.90;;;11.40;100.00;97524.47;5003580;28;20058;-68
2022/09/13 04:13:44;;;;;;;8.73;3.95;;;12.10;99.90;;;11.39;100.00;97528.00;5004868;28;20050;-68
2022/09/13 04:16:11;;;;;;;11.25;4.40;;;12.10;99.90;;;11.29;100.00;97525.84;5007033;28;20046;-71
2022/09/13 04:18:38;;;;;;;5.35;4.20;;;12.10;99.90;;;11.33;100.00;97533.47;5003386;28;20157;-71
2022/09/13 04:21:04;;;;;;;7.43;4.07;;;12.10;99.90;;;11.44;100.00;97539.03;5004471;28;20495;-71
2022/09/13 04:23:32;;;;;;;6.03;4.25;;;12.20;99.90;;;11.25;100.00;97544.25;5002228;28;20057;-71
2022/09/13 04:26:03;;;;;;;5.82;4.53;;;12.20;99.90;;;11.23;100.00;97546.91;5003128;28;20050;-69
2022/09/13 04:28:30;;;;;;;10.07;4.68;;;12.20;99.90;;;11.36;100.00;97547.19;4997556;28;20505;-70
2022/09/13 04:30:57;;;;;;;9.48;4.35;;;12.30;99.90;;;11.33;100.00;97551.66;5018505;28;20042;-69
2022/09/13 04:33:24;;;;;;;8.27;4.35;;;12.30;99.90;;;11.37;100.00;97551.47;5000618;28;20045;-71
2022/09/13 04:35:58;;;;;;;6.35;4.28;;;12.40;99.90;;;11.54;100.00;97560.22;4999805;28;20069;-71
2022/09/13 04:38:26;;;;;;;5.05;3.85;;;12.40;99.90;;;11.66;100.00;97557.91;4997628;28;20064;-71
2022/09/13 04:40:56;;;;;;;5.68;3.50;;;12.50;99.90;;;11.82;100.00;97564.97;5031648;28;20115;-71
2022/09/13 04:43:23;;;;;;;5.32;4.20;;;12.60;99.90;;;11.72;100.00;97574.94;5003920;28;20068;-72
2022/09/13 04:45:51;;;;;;;7.55;4.43;;;12.60;99.90;;;11.63;100.00;97567.59;5004907;28;20038;-72
2022/09/13 04:48:18;;;;;;;7.25;4.07;;;12.70;99.90;;;11.54;100.00;97575.81;5006856;28;20042;-72
2022/09/13 04:50:45;;;;;;;6.93;4.20;;;12.60;99.90;;;11.52;100.00;97587.16;5037888;28;20049;-71
2022/09/13 04:53:12;;;;;;;7.10;4.35;;;12.60;99.90;;;11.53;100.00;97585.38;5003145;28;20472;-70
2022/09/13 04:55:39;;;;;;;9.25;3.92;;;12.60;99.90;;;11.62;100.00;97589.31;5000752;28;20053;-71
2022/09/13 04:58:06;;;;;;;9.82;4.45;;;12.60;99.90;;;11.53;100.00;97580.19;5003003;28;20056;-71
2022/09/13 05:00:34;;;;;;;5.40;4.07;;;12.50;99.90;;;11.43;100.00;97581.53;4999012;28;20053;-71
2022/09/13 05:03:01;;;;;;;6.78;4.10;;;12.50;99.90;;;11.37;100.00;97580.03;4998737;28;20259;-71
2022/09/13 05:05:28;;;;;;;7.65;4.15;;;12.50;99.90;;;11.26;100.00;97603.91;5031018;28;20056;-71
2022/09/13 05:07:55;;;;;;;9.13;3.97;;;12.40;99.90;;;11.25;100.00;97594.44;5031699;28;20048;-72
2022/09/13 05:10:22;;;;;;;7.28;3.97;;;12.40;99.90;;;11.17;100.00;97596.53;4999482;28;20100;-71
2022/09/13 05:12:49;;;;;;;7.97;4.32;;;12.30;99.90;;;11.23;100.00;97587.63;5031954;28;20086;-71
2022/09/13 05:15:16;;;;;;;8.32;4.50;;;12.30;99.90;;;11.14;100.00;97580.25;5031535;28;20049;-71
2022/09/13 05:17:43;;;;;;;10.40;4.43;;;12.30;99.90;;;11.18;100.00;97579.22;5002263;28;20057;-71
2022/09/13 05:20:10;;;;;;;10.13;5.43;;;12.30;99.90;;;11.16;100.00;97581.88;5033177;28;20050;-71
2022/09/13 05:22:37;;;;;;;10.75;5.10;;;12.30;99.90;;;11.17;100.00;97604.31;5006758;28;20058;-72
2022/09/13 05:25:05;;;;;;;8.98;5.05;;;12.30;99.90;;;11.18;100.00;97608.63;5004502;28;20064;-71
2022/09/13 05:27:32;;;;;;;5.43;3.85;;;12.40;99.90;;;11.55;100.00;97619.94;5007587;28;20046;-71
2022/09/13 05:29:59;;;;;;;4.25;3.42;;;12.40;99.90;;;11.77;100.00;97626.75;5038880;28;20426;-71
2022/09/13 05:32:26;;;;;;;7.00;4.40;;;12.60;99.90;;;11.89;100.00;97624.47;5007510;28;20058;-71
2022/09/13 05:34:53;;;;;;;7.82;4.18;;;12.70;99.90;;;12.07;100.00;97627.13;5006337;28;20434;-71
2022/09/13 05:37:20;;;;;;;9.65;5.78;;;12.90;99.90;;;12.03;100.00;97612.56;5006435;28;20049;-71
2022/09/13 05:39:47;;;;;;;7.70;5.30;;;12.90;99.90;;;11.86;100.00;97614.19;5037587;28;20278;-71
2022/09/13 05:42:34;;;;;;;8.32;5.05;;;13.10;99.90;;;11.83;100.00;97605.66;5007473;28;20200;-71
2022/09/13 05:45:01;;;;;;;6.82;4.38;;;13.10;99.90;;;11.88;100.00;97603.72;5006988;28;20054;-71
2022/09/13 05:47:27;;;;;;;7.60;4.55;;;13.10;99.90;;;11.87;100.00;97599.41;5007199;28;20045;-71
2022/09/13 05:49:54;;;;;;;7.88;4.90;;;13.10;99.90;;;11.78;100.00;97607.66;5038291;28;20049;-71
2022/09/13 05:52:36;;;;;;;7.72;4.80;;;13.00;99.90;;;11.92;100.00;97605.25;5004129;28;20057;-71
2022/09/13 05:55:03;;;;;;;5.53;4.25;;;13.00;99.90;;;11.96;100.00;97608.56;5006160;28;20045;-71
2022/09/13 05:57:30;;;;;;;6.28;3.70;;;13.00;99.90;;;11.99;100.00;97611.00;5037223;28;20053;-71
2022/09/13 05:59:57;;;;;;;10.23;4.20;;;13.00;99.90;;;12.05;100.00;97608.97;5007241;28;20060;-71
2022/09/13 06:02:24;;;;;;;5.32;4.00;;;13.10;99.90;;;12.28;100.00;97607.84;5007621;28;20057;-72
2022/09/13 06:04:51;;;;;;;6.90;4.45;;;13.20;99.90;;;12.30;100.00;97593.00;5007265;28;20061;-71
2022/09/13 06:07:19;;;;;;;7.10;4.97;;;13.40;99.90;;;12.19;100.00;97597.06;5006549;28;20058;-71
2022/09/13 06:09:46;;;;;;;6.78;4.22;;;13.50;99.90;;;12.22;100.00;97591.69;5004095;28;20046;-71
2022/09/13 06:12:13;;;;;;;9.13;4.80;;;13.50;99.90;;;12.12;100.00;97586.09;5004070;28;20153;-71
2022/09/13 06:14:40;;;;;;;4.88;4.35;;;13.50;99.90;;;12.18;100.00;97580.59;5037867;28;20046;-71
2022/09/13 06:17:06;;;;;;;7.35;4.40;;;13.50;99.90;;;12.28;100.00;97568.81;5005036;28;20061;-71
2022/09/13 06:19:34;;;;;;;7.82;4.18;;;13.60;99.90;;;12.43;100.00;97576.75;5006664;28;20050;-71
2022/09/13 06:22:01;;;;;;;5.85;4.28;;;13.60;99.90;;;12.43;100.00;97576.75;5006321;28;20050;-71
2022/09/13 06:24:28;;;;;;;7.22;4.30;;;13.70;99.90;;;12.31;100.00;97566.03;5004493;28;20088;-71
2022/09/13 06:26:54;;;;;;;7.85;4.45;;;13.70;99.90;;;12.37;100.00;97567.50;5003737;28;20057;-71
2022/09/13 06:29:21;;;;;;;7.18;4.28;;;13.70;99.90;;;12.48;100.00;97582.59;5006188;28;20042;-71
2022/09/13 06:31:48;;;;;;;11.73;4.88;;;13.80;99.90;;;12.54;100.00;97588.34;5006612;28;20614;-71
2022/09/13 06:34:16;;;;;;;11.73;4.10;;;13.80;99.90;;;12.58;100.00;97602.03;5006760;28;20050;-71
2022/09/13 06:36:43;;;;;;;6.05;3.40;;;13.90;99.90;;;13.04;100.00;97606.66;5003694;28;20061;-71
2022/09/13 06:39:10;;;;;;;5.45;4.00;;;14.00;99.90;;;13.27;100.00;97595.84;5035665;28;20050;-71
2022/09/13 06:41:37;;;;;;;4.85;3.70;;;14.10;99.90;;;13.51;100.00;97580.72;5038279;28;20644;-71
2022/09/13 06:44:04;;;;;;;4.43;3.75;;;14.30;99.90;;;13.64;100.00;97583.50;5006658;28;20112;-71
2022/09/13 06:46:34;;;;;;;5.82;3.53;;;14.50;99.90;;;13.78;100.00;97572.31;5002139;28;20108;-71
2022/09/13 06:49:04;;;;;;;5.68;3.15;;;14.60;99.90;;;13.84;100.00;97564.09;5006298;28;20116;-71
2022/09/13 06:51:33;;;;;;;6.82;3.78;;;14.70;99.90;;;13.95;100.00;97553.06;5037188;28;20049;-71
2022/09/13 06:54:02;;;;;;;6.97;3.83;;;14.80;99.90;;;13.99;100.00;97547.59;5035942;28;20503;-71
2022/09/13 06:56:35;;;;;;;5.38;3.10;;;14.90;99.90;;;14.17;100.00;97544.88;5035812;28;20057;-71
2022/09/13 06:59:05;;;;;;;3.90;3.17;;;15.10;99.90;;;14.47;100.00;97520.50;5003637;28;20424;-71
2022/09/13 07:01:39;;;;;;;8.48;3.55;;;15.30;99.90;;;14.59;100.00;97511.97;5005082;28;20065;-71
2022/09/13 07:04:11;;;;;;;7.07;3.40;;;15.40;99.90;;;14.58;100.00;97513.75;5004413;28;20652;-71
2022/09/13 07:06:45;;;;;;;5.93;2.85;;;15.50;99.90;;;14.84;100.00;97486.03;4999534;28;20054;-71
2022/09/13 07:09:20;;;;;;;5.45;3.95;;;15.60;99.90;;;14.80;100.00;97473.25;5036129;28;20049;-71
2022/09/13 07:11:49;;;;;;;8.98;3.45;;;15.80;99.90;;;14.99;100.00;97459.91;5006542;28;20062;-71
2022/09/13 07:14:20;;;;;;;6.28;3.20;;;15.90;99.90;;;15.23;100.00;97454.88;5036967;28;20101;-71
2022/09/13 07:16:47;;;;;;;7.57;2.78;;;;;;;15.42;100.00;97439.72;5037021;28;20558;-72
2022/09/13 07:19:21;;;;;;;3.70;2.75;;;16.30;99.90;;;15.24;100.00;97430.44;5007854;28;20049;-71
2022/09/13 07:21:49;;;;;;;5.32;2.63;;;16.50;99.90;;;15.35;100.00;97407.06;5001423;28;20050;-71
2022/09/13 07:24:18;;;;;;;6.60;3.97;;;16.70;99.90;;;15.34;100.00;97417.59;5004816;28;20065;-71
2022/09/13 07:26:46;;;;;;;4.88;3.05;;;16.70;99.90;;;15.53;100.00;97414.63;5009706;28;20373;-71
2022/09/13 07:29:21;;;;;;;4.43;2.70;;;16.80;99.90;;;15.79;100.00;97420.81;5041455;28;20137;-71
2022/09/13 07:31:53;;;;;;;5.70;3.38;;;16.90;99.90;;;15.72;100.00;97412.53;5005900;28;20095;-71
2022/09/13 07:34:22;;;;;;;6.30;3.42;;;17.10;99.90;;;15.66;100.00;97402.41;5009561;28;20069;-72
2022/09/13 07:36:51;;;;;;;6.78;3.80;;;17.20;99.90;;;15.71;100.00;97392.50;5008333;28;20057;-71
2022/09/13 07:39:19;;;;;;;5.82;3.75;;;17.30;99.90;;;15.72;100.00;97393.38;5040837;28;20056;-71
2022/09/13 07:41:49;;;;;;;4.60;3.42;;;17.40;99.90;;;15.70;100.00;97382.97;5001269;28;20062;-71
2022/09/13 07:44:16;;;;;;;6.18;3.50;;;17.50;99.90;;;15.92;100.00;97384.16;5008322;28;20050;-71
2022/09/13 07:46:43;;;;;;;3.97;2.85;;;17.40;99.90;;;16.15;100.00;97383.47;5007706;28;20050;-72
2022/09/13 07:49:13;;;;;;;6.35;3.60;;;17.50;99.90;;;16.32;100.00;97377.06;5008116;28;20084;-71
2022/09/13 07:51:42;;;;;;;9.32;3.15;;;17.70;99.90;;;16.87;100.00;97364.53;5008669;28;20065;-71
2022/09/13 07:54:13;;;;;;;4.10;2.67;;;17.90;99.90;;;17.05;100.00;97354.50;5008355;28;20137;-71
2022/09/13 07:56:40;;;;;;;6.88;3.15;;;18.20;99.90;;;17.20;100.00;97342.06;5041016;28;20499;-72
2022/09/13 07:59:14;;;;;;;5.10;3.25;;;18.50;99.90;;;17.06;100.00;97335.19;5009209;28;20062;-72
2022/09/13 08:01:44;;;;;;;4.70;2.50;;;18.70;99.90;;;17.04;100.00;97314.34;5021583;28;20058;-72
2022/09/13 08:04:18;;;;;;;5.60;2.63;;;;;;;17.62;100.00;97310.97;5039489;28;20049;-71
2022/09/13 08:06:45;;;;;;;4.78;2.70;;;19.30;99.90;;;17.56;100.00;97301.75;5008531;28;20057;-72
2022/09/13 08:09:13;;;;;;;6.32;2.42;;;19.60;99.90;;;17.30;100.00;97308.94;5008391;28;20057;-71
2022/09/13 08:11:46;;;;;;;3.55;2.60;;;19.50;99.90;;;17.10;100.00;97318.28;5009519;28;20519;-71
2022/09/13 08:14:16;;;;;;;3.78;2.35;;;19.30;99.90;;;17.51;100.00;97311.75;5007290;28;20050;-71
2022/09/13 08:16:44;;;;;;;4.20;2.28;;;19.10;99.90;;;17.77;100.00;97321.13;5039400;28;20060;-71
2022/09/13 08:19:16;;;;;;;5.18;2.80;;;19.10;99.90;;;18.01;100.00;97314.16;5006393;28;20060;-71
2022/09/13 08:21:44;;;;;;;4.07;2.37;;;19.10;99.90;;;18.27;100.00;97301.63;5005632;28;20049;-71
2022/09/13 08:24:20;;;;;;;2.63;2.10;;;19.40;99.90;;;18.64;100.00;97282.97;5007543;28;20318;-71
2022/09/13 08:26:47;;;;;;;3.78;3.15;;;19.70;99.90;;;19.23;100.00;97270.22;5004573;28;20045;-71
2022/09/13 08:29:15;;;;;;;5.05;2.00;;;20.20;99.90;;;20.12;100.00;97232.91;5007040;28;20052;-72
2022/09/13 08:31:43;;;;;;;5.10;2.10;;;20.80;99.90;;;20.87;100.00;97223.66;5036966;28;20061;-72
2022/09/13 08:34:13;;;;;;;3.35;1.60;;;21.70;99.90;;;20.95;100.00;97186.03;5004546;28;20460;-71
2022/09/13 08:36:41;;;;;;;2.40;1.55;;;;;;;20.78;100.00;97165.63;5004077;28;20137;-72
2022/09/13 08:39:10;;;;;;;3.55;1.58;;;22.10;99.90;;;21.06;100.00;97159.47;5008510;28;20141;-71
2022/09/13 08:41:41;;;;;;;4.03;1.50;;;22.20;99.90;;;21.78;100.00;97146.69;5036770;28;20049;-72
2022/09/13 08:44:35;;;;;;;3.95;1.70;;;22.50;99.90;;;21.70;100.00;97141.28;5007985;28;20053;-72
2022/09/13 08:47:34;;;;;;;4.20;1.50;;;23.00;99.90;;;21.98;100.00;97136.81;5004971;28;20061;-72
2022/09/13 08:50:10;;;;;;;4.28;1.40;;;23.60;99.90;;;21.82;100.00;97157.75;4998316;28;20451;-72
2022/09/13 08:53:05;;;;;;;2.65;1.30;;;23.70;99.90;;;21.21;100.00;97191.56;5002411;28;20060;-72
2022/09/13 08:55:57;;;;;;;3.33;1.77;;;23.60;99.90;;;21.03;100.00;97207.28;5005712;28;20132;-71
2022/09/13 08:58:42;;;;;;;2.75;1.40;;;23.60;99.90;;;21.35;100.00;97211.41;5001615;28;20049;-72
2022/09/13 09:01:43;;;;;;;4.10;1.25;;;23.50;99.90;;;22.02;100.00;97191.03;5006029;28;20055;-72
2022/09/13 09:04:25;;;;;;;1.83;1.17;;;23.50;99.90;;;22.10;100.00;97170.00;5005245;28;20065;-72
2022/09/13 09:07:12;;;;;;;3.65;1.00;;;23.60;99.90;;;22.68;100.00;97163.53;5006288;28;20053;-72
2022/09/13 09:09:53;;;;;;;2.88;1.10;;;23.70;99.90;;;22.32;100.00;97170.59;5006728;28;20132;-71
2022/09/13 09:12:45;;;;;;;3.33;1.40;;;23.90;99.90;;;22.10;100.00;97174.44;5038710;28;20046;-72
2022/09/13 09:15:22;;;;;;;3.40;1.48;;;23.90;99.90;;;22.38;100.00;97179.78;5037396;28;20046;-71
2022/09/13 09:18:22;;;;;;;3.85;1.73;;;23.90;99.90;;;22.27;100.00;97189.56;5005401;28;20058;-71
2022/09/13 09:20:53;;;;;;;3.58;1.23;;;23.70;99.90;;;22.21;100.00;97202.50;4999823;28;20069;-72
2022/09/13 09:23:27;;;;;;;3.72;1.17;;;23.80;99.90;;;22.68;100.00;97194.44;5037610;28;20053;-71
2022/09/13 09:26:27;;;;;;;2.25;1.25;;;24.00;99.90;;;22.74;100.00;97186.75;5005254;28;20065;-72
2022/09/13 09:29:24;;;;;;;3.75;1.60;;;24.20;99.90;;;22.36;100.00;97190.47;5036598;28;20047;-71
2022/09/13 09:31:57;;;;;;;3.55;1.35;;;24.20;99.90;;;22.28;100.00;97179.81;5036869;28;20057;-71
2022/09/13 09:34:52;;;;;;;4.28;1.90;;;24.20;99.90;;;21.93;100.00;97190.09;5003435;28;20045;-72
2022/09/13 09:37:25;;;;;;;4.85;1.52;;;24.00;99.90;;;22.43;100.00;97196.84;5002816;28;20060;-72
2022/09/13 09:39:54;;;;;;;4.40;1.65;;;24.00;99.90;;;21.75;100.00;97213.00;5001151;28;20069;-72
2022/09/13 09:42:27;;;;;;;2.85;1.42;;;24.10;99.90;;;21.90;100.00;97235.34;5036070;28;20061;-72
2022/09/13 09:45:16;;;;;;;3.83;1.55;;;24.00;99.90;;;22.30;100.00;97239.47;5006274;28;20049;-72
2022/09/13 09:47:50;;;;;;;10.80;4.45;;;24.10;99.90;;;22.49;100.00;97248.31;5005902;28;20487;-72
2022/09/13 09:50:42;;;;;;;5.40;3.10;;;24.20;99.90;;;22.49;100.00;97258.91;5035853;28;20049;-71
2022/09/13 09:53:27;;;;;;;6.72;2.95;;;24.30;99.90;;;22.42;100.00;97273.66;5002923;28;20291;-71
2022/09/13 09:56:23;;;;;;;7.07;3.15;;;24.30;99.90;;;22.42;100.00;97255.16;5019192;28;20103;-71
2022/09/13 09:58:53;;;;;;;5.75;2.53;;;24.10;99.90;;;22.39;100.00;97250.16;5000095;28;20412;-71
2022/09/13 10:01:31;;;;;;;7.88;3.90;;;24.00;99.90;;;22.29;100.00;97252.88;5001870;28;20399;-72
2022/09/13 10:04:09;;;;;;;10.07;4.05;;;23.90;99.90;;;22.33;100.00;97265.66;5004965;28;20111;-72
2022/09/13 10:06:39;;;;;;;9.63;3.35;;;23.90;99.90;;;22.45;100.00;97257.53;5002130;28;20050;-72
2022/09/13 10:09:20;;;;;;;4.43;2.55;;;24.00;99.90;;;22.77;100.00;97252.56;5004849;28;20519;-72
2022/09/13 10:11:50;;;;;;;5.65;2.80;;;24.20;99.90;;;23.14;100.00;97237.56;5034688;28;20053;-71
2022/09/13 10:14:36;;;;;;;8.25;3.47;;;24.60;99.90;;;22.89;100.00;97247.06;5037942;28;20437;-71
2022/09/13 10:17:27;;;;;;;5.13;2.58;;;24.80;99.90;;;22.98;100.00;97252.28;5005389;28;20060;-72
2022/09/13 10:20:20;;;;;;;5.63;2.50;;;24.80;99.90;;;22.75;100.00;97248.41;4996118;28;20049;-71
2022/09/13 10:23:13;;;;;;;3.97;1.98;;;24.80;99.90;;;23.16;100.00;97247.00;5033382;28;20069;-72
2022/09/13 10:25:44;;;;;;;4.57;2.05;;;24.90;99.90;;;23.33;100.00;97228.59;5027891;28;20613;-72
2022/09/13 10:28:17;;;;;;;4.65;1.80;;;25.00;99.90;;;23.19;100.00;97227.34;5033313;28;20165;-72
2022/09/13 10:30:56;;;;;;;3.65;2.28;;;25.10;99.90;;;23.47;100.00;97219.28;5004067;28;20050;-72
2022/09/13 10:33:49;;;;;;;4.53;1.60;;;25.00;99.90;;;22.97;100.00;97232.09;5033384;28;20050;-72
2022/09/13 10:36:26;;;;;;;3.72;1.90;;;25.00;99.90;;;22.92;100.00;97237.03;5005231;28;20050;-72
2022/09/13 10:39:19;;;;;;;3.30;1.80;;;25.00;99.90;;;22.83;100.00;97234.44;5029948;28;20056;-72
2022/09/13 10:42:01;;;;;;;11.57;5.20;;;24.90;99.90;;;23.08;100.00;97239.03;5030373;28;20061;-71
2022/09/13 10:44:37;;;;;;;12.73;7.15;;;24.80;99.90;;;23.20;100.00;97236.13;5004951;28;20546;-71
2022/09/13 10:47:11;;;;;;;6.68;2.58;;;24.90;99.90;;;23.35;100.00;97226.63;5004695;28;20060;-71
2022/09/13 10:49:51;;;;;;;14.75;6.60;;;24.90;99.90;;;23.07;100.00;97228.56;5037191;28;20052;-71